createdAt,value
2017-07-12T00:00:02.149Z,801.58
2017-07-12T00:00:06.237Z,801.62
2017-07-12T00:00:10.312Z,801.64
2017-07-12T00:00:14.652Z,801.64
2017-07-12T00:00:18.870Z,801.59
2017-07-12T00:00:22.834Z,801.6
2017-07-12T00:00:27.027Z,801.61
2017-07-12T00:00:31.218Z,801.6
2017-07-12T00:00:35.166Z,801.62
2017-07-12T00:00:39.635Z,801.65
2017-07-12T00:00:43.595Z,801.63
2017-07-12T00:00:47.914Z,801.63
2017-07-12T00:00:51.870Z,801.6
2017-07-12T00:00:55.707Z,801.64
2017-07-12T00:00:59.541Z,801.64
2017-07-12T00:01:03.625Z,801.64
2017-07-12T00:01:07.838Z,801.62
2017-07-12T00:01:11.926Z,801.64
2017-07-12T00:01:16.139Z,801.61
2017-07-12T00:01:20.232Z,801.63
2017-07-12T00:01:24.055Z,801.58
2017-07-12T00:01:28.391Z,801.58
2017-07-12T00:01:32.361Z,801.64
2017-07-12T00:01:36.324Z,801.62
2017-07-12T00:01:40.532Z,801.62
2017-07-12T00:01:44.761Z,801.63
2017-07-12T00:01:49.233Z,801.65
2017-07-12T00:01:53.039Z,801.64
2017-07-12T00:01:57.121Z,801.65
2017-07-12T00:02:01.065Z,801.63
2017-07-12T00:02:05.437Z,801.66
2017-07-12T00:02:09.667Z,801.6
2017-07-12T00:02:13.487Z,801.61
2017-07-12T00:02:17.582Z,801.66
2017-07-12T00:02:21.790Z,801.56
2017-07-12T00:02:26.000Z,801.64
2017-07-12T00:02:30.218Z,801.63
2017-07-12T00:02:34.168Z,801.61
2017-07-12T00:02:38.503Z,801.63
2017-07-12T00:02:42.711Z,801.6
2017-07-12T00:02:46.922Z,801.64
2017-07-12T00:02:50.754Z,801.62
2017-07-12T00:02:54.825Z,801.65
2017-07-12T00:02:58.794Z,801.64
2017-07-12T00:03:03.120Z,801.64
2017-07-12T00:03:07.084Z,801.63
2017-07-12T00:03:11.173Z,801.63
2017-07-12T00:03:15.493Z,801.65
2017-07-12T00:03:19.698Z,801.63
2017-07-12T00:03:23.888Z,801.63
2017-07-12T00:03:28.153Z,801.65
2017-07-12T00:03:32.246Z,801.63
2017-07-12T00:03:36.325Z,801.57
2017-07-12T00:03:40.156Z,801.6
2017-07-12T00:03:44.364Z,801.67
2017-07-12T00:03:48.819Z,801.65
2017-07-12T00:03:52.647Z,801.62
2017-07-12T00:03:56.734Z,801.66
2017-07-12T00:04:00.950Z,801.6
2017-07-12T00:04:05.201Z,801.62
2017-07-12T00:04:09.280Z,801.66
2017-07-12T00:04:13.493Z,801.64
2017-07-12T00:04:17.834Z,801.66
2017-07-12T00:04:21.651Z,801.66
2017-07-12T00:04:25.735Z,801.67
2017-07-12T00:04:29.933Z,801.63
2017-07-12T00:04:33.874Z,801.65
2017-07-12T00:04:37.959Z,801.65
2017-07-12T00:04:42.030Z,801.61
2017-07-12T00:04:45.974Z,801.62
2017-07-12T00:04:50.055Z,801.61
2017-07-12T00:04:54.260Z,801.6
2017-07-12T00:04:58.340Z,801.61
2017-07-12T00:05:02.558Z,801.67
2017-07-12T00:05:06.260Z,801.64
2017-07-12T00:05:10.605Z,801.67
2017-07-12T00:05:14.949Z,801.61
2017-07-12T00:05:19.375Z,801.67
2017-07-12T00:05:23.530Z,801.67
2017-07-12T00:05:27.613Z,801.65
2017-07-12T00:05:31.689Z,801.66
2017-07-12T00:05:35.641Z,801.64
2017-07-12T00:05:39.713Z,801.68
2017-07-12T00:05:43.914Z,801.68
2017-07-12T00:05:48.378Z,801.67
2017-07-12T00:05:52.332Z,801.6
2017-07-12T00:05:56.537Z,801.64
2017-07-12T00:06:00.757Z,801.68
2017-07-12T00:06:04.456Z,801.66
2017-07-12T00:06:08.656Z,801.67
2017-07-12T00:06:12.360Z,801.69
2017-07-12T00:06:16.445Z,801.66
2017-07-12T00:06:20.540Z,801.65
2017-07-12T00:06:24.743Z,801.62
2017-07-12T00:06:28.441Z,801.61
2017-07-12T00:06:32.399Z,801.65
2017-07-12T00:06:36.580Z,801.64
2017-07-12T00:06:40.660Z,801.67
2017-07-12T00:06:44.863Z,801.7
2017-07-12T00:06:49.087Z,801.66
2017-07-12T00:06:53.164Z,801.63
2017-07-12T00:06:57.105Z,801.61
2017-07-12T00:07:01.184Z,801.68
2017-07-12T00:07:05.396Z,801.68
2017-07-12T00:07:09.730Z,801.69
2017-07-12T00:07:14.070Z,801.67
2017-07-12T00:07:18.410Z,801.65
2017-07-12T00:07:22.113Z,801.7
2017-07-12T00:07:26.182Z,801.71
2017-07-12T00:07:30.261Z,801.72
2017-07-12T00:07:34.088Z,801.69
2017-07-12T00:07:37.794Z,801.7
2017-07-12T00:07:41.618Z,801.7
2017-07-12T00:07:45.823Z,801.69
2017-07-12T00:07:49.899Z,801.66
2017-07-12T00:07:53.961Z,801.67
2017-07-12T00:07:57.919Z,801.66
2017-07-12T00:08:02.116Z,801.7
2017-07-12T00:08:06.062Z,801.73
2017-07-12T00:08:10.131Z,801.71
2017-07-12T00:08:14.594Z,801.71
2017-07-12T00:08:18.943Z,801.7
2017-07-12T00:08:23.156Z,801.7
2017-07-12T00:08:27.099Z,801.71
2017-07-12T00:08:30.918Z,801.7
2017-07-12T00:08:35.004Z,801.73
2017-07-12T00:08:39.474Z,801.7
2017-07-12T00:08:43.693Z,801.69
2017-07-12T00:08:47.883Z,801.74
2017-07-12T00:08:52.099Z,801.74
2017-07-12T00:08:56.328Z,801.76
2017-07-12T00:09:00.413Z,801.73
2017-07-12T00:09:04.351Z,801.77
2017-07-12T00:09:08.420Z,801.73
2017-07-12T00:09:12.500Z,801.76
2017-07-12T00:09:16.570Z,801.74
2017-07-12T00:09:20.642Z,801.72
2017-07-12T00:09:24.595Z,801.74
2017-07-12T00:09:28.795Z,801.72
2017-07-12T00:09:32.628Z,801.74
2017-07-12T00:09:36.717Z,801.76
2017-07-12T00:09:40.979Z,801.75
2017-07-12T00:09:45.066Z,801.75
2017-07-12T00:09:49.029Z,801.67
2017-07-12T00:09:52.979Z,801.71
2017-07-12T00:09:57.447Z,801.7
2017-07-12T00:10:01.547Z,801.76
2017-07-12T00:10:05.625Z,801.72
2017-07-12T00:10:09.469Z,801.73
2017-07-12T00:10:13.664Z,801.77
2017-07-12T00:10:17.994Z,801.77
2017-07-12T00:10:21.833Z,801.73
2017-07-12T00:10:25.655Z,801.75
2017-07-12T00:10:29.844Z,801.77
2017-07-12T00:10:33.672Z,801.77
2017-07-12T00:10:37.761Z,801.72
2017-07-12T00:10:42.105Z,801.7
2017-07-12T00:10:46.186Z,801.7
2017-07-12T00:10:50.386Z,801.75
2017-07-12T00:10:54.596Z,801.72
2017-07-12T00:10:58.550Z,801.75
2017-07-12T00:11:03.094Z,801.78
2017-07-12T00:11:07.287Z,801.78
2017-07-12T00:11:11.495Z,801.76
2017-07-12T00:11:15.568Z,801.78
2017-07-12T00:11:19.763Z,801.77
2017-07-12T00:11:23.712Z,801.78
2017-07-12T00:11:27.962Z,801.78
2017-07-12T00:11:32.179Z,801.76
2017-07-12T00:11:36.250Z,801.79
2017-07-12T00:11:40.333Z,801.8
2017-07-12T00:11:44.309Z,801.79
2017-07-12T00:11:48.625Z,801.78
2017-07-12T00:11:52.827Z,801.76
2017-07-12T00:11:57.150Z,801.77
2017-07-12T00:12:01.361Z,801.76
2017-07-12T00:12:05.331Z,801.78
2017-07-12T00:12:09.427Z,801.8
2017-07-12T00:12:13.753Z,801.78
2017-07-12T00:12:17.835Z,801.79
2017-07-12T00:12:21.773Z,801.76
2017-07-12T00:12:25.850Z,801.78
2017-07-12T00:12:29.803Z,801.78
2017-07-12T00:12:33.755Z,801.77
2017-07-12T00:12:37.853Z,801.8
2017-07-12T00:12:42.198Z,801.78
2017-07-12T00:12:46.268Z,801.79
2017-07-12T00:12:50.462Z,801.73
2017-07-12T00:12:54.417Z,801.75
2017-07-12T00:12:58.241Z,801.78
2017-07-12T00:13:02.425Z,801.79
2017-07-12T00:13:06.739Z,801.78
2017-07-12T00:13:10.949Z,801.74
2017-07-12T00:13:15.158Z,801.75
2017-07-12T00:13:19.375Z,801.74
2017-07-12T00:13:23.567Z,801.79
2017-07-12T00:13:27.897Z,801.78
2017-07-12T00:13:31.982Z,801.78
2017-07-12T00:13:36.183Z,801.77
2017-07-12T00:13:40.193Z,801.78
2017-07-12T00:13:44.392Z,801.84
2017-07-12T00:13:48.712Z,801.81
2017-07-12T00:13:52.911Z,801.82
2017-07-12T00:13:57.108Z,801.78
2017-07-12T00:14:01.067Z,801.8
2017-07-12T00:14:04.907Z,801.81
2017-07-12T00:14:08.730Z,801.8
2017-07-12T00:14:12.443Z,801.81
2017-07-12T00:14:16.648Z,801.75
2017-07-12T00:14:20.864Z,801.81
2017-07-12T00:14:25.064Z,801.82
2017-07-12T00:14:29.389Z,801.81
2017-07-12T00:14:33.343Z,801.8
2017-07-12T00:14:37.168Z,801.82
2017-07-12T00:14:41.263Z,801.81
2017-07-12T00:14:45.217Z,801.78
2017-07-12T00:14:48.913Z,801.78
2017-07-12T00:14:52.735Z,801.76
2017-07-12T00:14:57.080Z,801.77
2017-07-12T00:15:01.293Z,801.78
2017-07-12T00:15:05.306Z,801.77
2017-07-12T00:15:09.273Z,801.77
2017-07-12T00:15:13.229Z,801.81
2017-07-12T00:15:17.440Z,801.81
2017-07-12T00:15:21.767Z,801.81
2017-07-12T00:15:25.994Z,801.8
2017-07-12T00:15:30.204Z,801.82
2017-07-12T00:15:34.159Z,801.81
2017-07-12T00:15:38.243Z,801.84
2017-07-12T00:15:42.316Z,801.82
2017-07-12T00:15:46.402Z,801.83
2017-07-12T00:15:50.272Z,801.75
2017-07-12T00:15:54.350Z,801.81
2017-07-12T00:15:58.311Z,801.79
2017-07-12T00:16:02.692Z,801.85
2017-07-12T00:16:06.884Z,801.85
2017-07-12T00:16:10.835Z,801.83
2017-07-12T00:16:14.916Z,801.84
2017-07-12T00:16:19.006Z,801.85
2017-07-12T00:16:23.209Z,801.84
2017-07-12T00:16:27.302Z,801.86
2017-07-12T00:16:31.256Z,801.85
2017-07-12T00:16:35.473Z,801.87
2017-07-12T00:16:39.546Z,801.81
2017-07-12T00:16:43.752Z,801.86
2017-07-12T00:16:47.959Z,801.88
2017-07-12T00:16:51.913Z,801.84
2017-07-12T00:16:55.992Z,801.87
2017-07-12T00:16:59.952Z,801.85
2017-07-12T00:17:03.891Z,801.88
2017-07-12T00:17:08.120Z,801.86
2017-07-12T00:17:12.084Z,801.88
2017-07-12T00:17:16.171Z,801.87
2017-07-12T00:17:20.506Z,801.88
2017-07-12T00:17:24.460Z,801.85
2017-07-12T00:17:28.654Z,801.89
2017-07-12T00:17:32.615Z,801.86
2017-07-12T00:17:36.826Z,801.88
2017-07-12T00:17:40.915Z,801.89
2017-07-12T00:17:45.007Z,801.9
2017-07-12T00:17:49.332Z,801.89
2017-07-12T00:17:53.539Z,801.91
2017-07-12T00:17:57.482Z,801.91
2017-07-12T00:18:01.769Z,801.88
2017-07-12T00:18:05.724Z,801.9
2017-07-12T00:18:09.686Z,801.86
2017-07-12T00:18:13.764Z,801.86
2017-07-12T00:18:17.955Z,801.84
2017-07-12T00:18:22.166Z,801.89
2017-07-12T00:18:26.366Z,801.88
2017-07-12T00:18:30.343Z,801.91
2017-07-12T00:18:34.177Z,801.91
2017-07-12T00:18:38.390Z,801.9
2017-07-12T00:18:42.713Z,801.87
2017-07-12T00:18:47.192Z,801.91
2017-07-12T00:18:51.202Z,801.92
2017-07-12T00:18:55.144Z,801.91
2017-07-12T00:18:59.224Z,801.85
2017-07-12T00:19:03.305Z,801.92
2017-07-12T00:19:07.127Z,801.93
2017-07-12T00:19:11.202Z,801.92
2017-07-12T00:19:15.670Z,801.93
2017-07-12T00:19:20.010Z,801.9
2017-07-12T00:19:24.082Z,801.96
2017-07-12T00:19:28.169Z,801.9
2017-07-12T00:19:32.380Z,801.92
2017-07-12T00:19:36.330Z,801.94
2017-07-12T00:19:40.644Z,801.92
2017-07-12T00:19:44.732Z,801.97
2017-07-12T00:19:48.939Z,801.94
2017-07-12T00:19:53.148Z,801.94
2017-07-12T00:19:57.245Z,801.94
2017-07-12T00:20:01.212Z,801.96
2017-07-12T00:20:05.183Z,801.97
2017-07-12T00:20:09.387Z,801.96
2017-07-12T00:20:13.239Z,801.93
2017-07-12T00:20:17.451Z,801.94
2017-07-12T00:20:21.655Z,801.94
2017-07-12T00:20:25.992Z,801.96
2017-07-12T00:20:30.434Z,801.98
2017-07-12T00:20:34.511Z,801.97
2017-07-12T00:20:38.459Z,801.98
2017-07-12T00:20:42.404Z,801.98
2017-07-12T00:20:46.729Z,801.98
2017-07-12T00:20:50.915Z,801.92
2017-07-12T00:20:55.121Z,801.96
2017-07-12T00:20:59.468Z,801.96
2017-07-12T00:21:03.426Z,801.97
2017-07-12T00:21:07.501Z,801.99
2017-07-12T00:21:11.450Z,801.96
2017-07-12T00:21:15.659Z,801.98
2017-07-12T00:21:19.619Z,801.97
2017-07-12T00:21:23.832Z,801.99
2017-07-12T00:21:28.019Z,801.97
2017-07-12T00:21:31.726Z,801.99
2017-07-12T00:21:35.801Z,801.99
2017-07-12T00:21:39.889Z,801.97
2017-07-12T00:21:43.980Z,802
2017-07-12T00:21:47.955Z,801.98
2017-07-12T00:21:52.040Z,801.94
2017-07-12T00:21:56.252Z,801.98
2017-07-12T00:22:00.199Z,801.97
2017-07-12T00:22:04.053Z,801.99
2017-07-12T00:22:07.768Z,802
2017-07-12T00:22:11.601Z,801.98
2017-07-12T00:22:15.667Z,802.04
2017-07-12T00:22:19.366Z,802
2017-07-12T00:22:23.058Z,801.99
2017-07-12T00:22:26.741Z,801.99
2017-07-12T00:22:30.568Z,802.04
2017-07-12T00:22:34.273Z,802.02
2017-07-12T00:22:37.979Z,802
2017-07-12T00:22:41.674Z,802.02
2017-07-12T00:22:45.518Z,802.02
2017-07-12T00:22:49.216Z,802.03
2017-07-12T00:22:53.158Z,802.01
2017-07-12T00:22:57.115Z,802.02
2017-07-12T00:23:01.068Z,802
2017-07-12T00:23:04.757Z,802
2017-07-12T00:23:08.459Z,802.01
2017-07-12T00:23:12.138Z,802.01
2017-07-12T00:23:15.834Z,802.01
2017-07-12T00:23:19.660Z,801.99
2017-07-12T00:23:23.353Z,802.02
2017-07-12T00:23:27.173Z,802.02
2017-07-12T00:23:30.984Z,802.04
2017-07-12T00:23:34.685Z,802.04
2017-07-12T00:23:38.375Z,802.04
2017-07-12T00:23:42.457Z,802.01
2017-07-12T00:23:46.157Z,802.03
2017-07-12T00:23:49.978Z,802.04
2017-07-12T00:23:53.802Z,802.04
2017-07-12T00:23:57.739Z,802.01
2017-07-12T00:24:01.436Z,802.01
2017-07-12T00:24:05.139Z,802.01
2017-07-12T00:24:09.223Z,802.02
2017-07-12T00:24:13.170Z,801.98
2017-07-12T00:24:17.362Z,802
2017-07-12T00:24:21.697Z,802.05
2017-07-12T00:24:25.902Z,802.02
2017-07-12T00:24:30.249Z,802.01
2017-07-12T00:24:34.200Z,802.04
2017-07-12T00:24:38.280Z,802.03
2017-07-12T00:24:42.231Z,802.03
2017-07-12T00:24:46.070Z,802.07
2017-07-12T00:24:50.299Z,802.05
2017-07-12T00:24:54.509Z,802.06
2017-07-12T00:24:58.969Z,802.03
2017-07-12T00:25:03.486Z,802.06
2017-07-12T00:25:07.695Z,802.07
2017-07-12T00:25:11.657Z,802.06
2017-07-12T00:25:15.618Z,802.06
2017-07-12T00:25:19.820Z,801.99
2017-07-12T00:25:23.889Z,802.01
2017-07-12T00:25:28.213Z,802.05
2017-07-12T00:25:31.913Z,802.08
2017-07-12T00:25:35.863Z,802.04
2017-07-12T00:25:39.943Z,802.04
2017-07-12T00:25:43.905Z,802.1
2017-07-12T00:25:47.739Z,802.08
2017-07-12T00:25:51.689Z,802.09
2017-07-12T00:25:55.886Z,802.1
2017-07-12T00:26:00.088Z,802.11
2017-07-12T00:26:04.150Z,802.08
2017-07-12T00:26:08.246Z,802.05
2017-07-12T00:26:12.069Z,802.1
2017-07-12T00:26:15.886Z,802.14
2017-07-12T00:26:19.956Z,802.08
2017-07-12T00:26:24.276Z,802.11
2017-07-12T00:26:28.473Z,802.11
2017-07-12T00:26:32.354Z,802.13
2017-07-12T00:26:36.436Z,802.14
2017-07-12T00:26:40.275Z,802.12
2017-07-12T00:26:44.488Z,802.1
2017-07-12T00:26:48.687Z,802.14
2017-07-12T00:26:52.504Z,802.16
2017-07-12T00:26:56.841Z,802.09
2017-07-12T00:27:01.063Z,802.08
2017-07-12T00:27:05.188Z,802.16
2017-07-12T00:27:09.384Z,802.15
2017-07-12T00:27:13.478Z,802.15
2017-07-12T00:27:17.800Z,802.17
2017-07-12T00:27:22.002Z,802.19
2017-07-12T00:27:26.336Z,802.18
2017-07-12T00:27:30.531Z,802.17
2017-07-12T00:27:34.499Z,802.19
2017-07-12T00:27:38.582Z,802.19
2017-07-12T00:27:42.553Z,802.18
2017-07-12T00:27:46.892Z,802.17
2017-07-12T00:27:51.081Z,802.18
2017-07-12T00:27:55.029Z,802.21
2017-07-12T00:27:59.108Z,802.2
2017-07-12T00:28:03.391Z,802.2
2017-07-12T00:28:07.473Z,802.19
2017-07-12T00:28:11.538Z,802.21
2017-07-12T00:28:15.349Z,802.19
2017-07-12T00:28:19.301Z,802.2
2017-07-12T00:28:22.984Z,802.2
2017-07-12T00:28:26.675Z,802.22
2017-07-12T00:28:30.371Z,802.22
2017-07-12T00:28:34.183Z,802.22
2017-07-12T00:28:38.262Z,802.21
2017-07-12T00:28:42.325Z,802.21
2017-07-12T00:28:46.273Z,802.23
2017-07-12T00:28:49.974Z,802.22
2017-07-12T00:28:53.671Z,802.22
2017-07-12T00:28:57.622Z,802.27
2017-07-12T00:29:01.498Z,802.23
2017-07-12T00:29:05.325Z,802.25
2017-07-12T00:29:09.152Z,802.22
2017-07-12T00:29:13.222Z,802.26
2017-07-12T00:29:17.443Z,802.21
2017-07-12T00:29:21.406Z,802.24
2017-07-12T00:29:25.487Z,802.24
2017-07-12T00:29:29.849Z,802.29
2017-07-12T00:29:33.791Z,802.31
2017-07-12T00:29:37.990Z,802.26
2017-07-12T00:29:42.058Z,802.28
2017-07-12T00:29:46.015Z,802.28
2017-07-12T00:29:50.094Z,802.25
2017-07-12T00:29:54.421Z,802.27
2017-07-12T00:29:58.513Z,802.28
2017-07-12T00:30:02.843Z,802.33
2017-07-12T00:30:06.917Z,802.33
2017-07-12T00:30:10.878Z,802.3
2017-07-12T00:30:15.087Z,802.32
2017-07-12T00:30:19.299Z,802.31
2017-07-12T00:30:23.497Z,802.31
2017-07-12T00:30:27.689Z,802.34
2017-07-12T00:30:31.892Z,802.3
2017-07-12T00:30:36.119Z,802.33
2017-07-12T00:30:40.572Z,802.33
2017-07-12T00:30:44.797Z,802.35
2017-07-12T00:30:48.883Z,802.36
2017-07-12T00:30:52.720Z,802.34
2017-07-12T00:30:56.938Z,802.34
2017-07-12T00:31:01.021Z,802.37
2017-07-12T00:31:05.107Z,802.38
2017-07-12T00:31:09.200Z,802.37
2017-07-12T00:31:13.014Z,802.35
2017-07-12T00:31:17.220Z,802.39
2017-07-12T00:31:21.569Z,802.35
2017-07-12T00:31:25.638Z,802.4
2017-07-12T00:31:29.969Z,802.35
2017-07-12T00:31:33.681Z,802.33
2017-07-12T00:31:37.892Z,802.35
2017-07-12T00:31:42.301Z,802.37
2017-07-12T00:31:46.258Z,802.41
2017-07-12T00:31:50.349Z,802.42
2017-07-12T00:31:54.676Z,802.4
2017-07-12T00:31:58.883Z,802.44
2017-07-12T00:32:03.126Z,802.41
2017-07-12T00:32:06.947Z,802.41
2017-07-12T00:32:11.019Z,802.42
2017-07-12T00:32:14.986Z,802.44
2017-07-12T00:32:19.319Z,802.46
2017-07-12T00:32:23.588Z,802.45
2017-07-12T00:32:27.783Z,802.42
2017-07-12T00:32:31.484Z,802.43
2017-07-12T00:32:35.683Z,802.43
2017-07-12T00:32:39.758Z,802.44
2017-07-12T00:32:43.958Z,802.47
2017-07-12T00:32:48.418Z,802.46
2017-07-12T00:32:52.366Z,802.47
2017-07-12T00:32:56.582Z,802.43
2017-07-12T00:33:00.667Z,802.44
2017-07-12T00:33:04.700Z,802.43
2017-07-12T00:33:08.903Z,802.49
2017-07-12T00:33:12.865Z,802.5
2017-07-12T00:33:17.324Z,802.48
2017-07-12T00:33:21.538Z,802.5
2017-07-12T00:33:25.620Z,802.43
2017-07-12T00:33:29.446Z,802.48
2017-07-12T00:33:33.263Z,802.49
2017-07-12T00:33:37.471Z,802.49
2017-07-12T00:33:41.794Z,802.49
2017-07-12T00:33:46.114Z,802.49
2017-07-12T00:33:50.336Z,802.49
2017-07-12T00:33:54.411Z,802.49
2017-07-12T00:33:58.625Z,802.52
2017-07-12T00:34:03.028Z,802.53
2017-07-12T00:34:07.092Z,802.53
2017-07-12T00:34:11.441Z,802.5
2017-07-12T00:34:15.750Z,802.52
2017-07-12T00:34:20.086Z,802.51
2017-07-12T00:34:24.407Z,802.52
2017-07-12T00:34:28.758Z,802.51
2017-07-12T00:34:32.584Z,802.5
2017-07-12T00:34:36.798Z,802.53
2017-07-12T00:34:40.888Z,802.49
2017-07-12T00:34:44.849Z,802.53
2017-07-12T00:34:49.303Z,802.51
2017-07-12T00:34:53.515Z,802.53
2017-07-12T00:34:57.840Z,802.52
2017-07-12T00:35:02.387Z,802.53
2017-07-12T00:35:06.462Z,802.52
2017-07-12T00:35:10.542Z,802.47
2017-07-12T00:35:14.633Z,802.55
2017-07-12T00:35:18.977Z,802.53
2017-07-12T00:35:23.199Z,802.51
2017-07-12T00:35:27.407Z,802.54
2017-07-12T00:35:31.484Z,802.53
2017-07-12T00:35:35.702Z,802.52
2017-07-12T00:35:39.534Z,802.52
2017-07-12T00:35:43.603Z,802.52
2017-07-12T00:35:47.925Z,802.51
2017-07-12T00:35:52.007Z,802.55
2017-07-12T00:35:56.214Z,802.47
2017-07-12T00:36:00.190Z,802.51
2017-07-12T00:36:04.279Z,802.48
2017-07-12T00:36:08.496Z,802.47
2017-07-12T00:36:12.325Z,802.51
2017-07-12T00:36:16.671Z,802.52
2017-07-12T00:36:21.009Z,802.54
2017-07-12T00:36:24.975Z,802.52
2017-07-12T00:36:29.452Z,802.52
2017-07-12T00:36:33.395Z,802.55
2017-07-12T00:36:37.601Z,802.52
2017-07-12T00:36:41.426Z,802.47
2017-07-12T00:36:45.395Z,802.55
2017-07-12T00:36:49.488Z,802.53
2017-07-12T00:36:53.574Z,802.54
2017-07-12T00:36:57.790Z,802.51
2017-07-12T00:37:01.873Z,802.5
2017-07-12T00:37:05.955Z,802.52
2017-07-12T00:37:10.048Z,802.5
2017-07-12T00:37:14.016Z,802.49
2017-07-12T00:37:17.730Z,802.5
2017-07-12T00:37:21.812Z,802.57
2017-07-12T00:37:26.018Z,802.54
2017-07-12T00:37:30.232Z,802.55
2017-07-12T00:37:34.332Z,802.5
2017-07-12T00:37:38.651Z,802.52
2017-07-12T00:37:42.720Z,802.53
2017-07-12T00:37:47.060Z,802.48
2017-07-12T00:37:51.272Z,802.51
2017-07-12T00:37:55.488Z,802.51
2017-07-12T00:37:59.325Z,802.51
2017-07-12T00:38:03.321Z,802.52
2017-07-12T00:38:07.544Z,802.51
2017-07-12T00:38:11.881Z,802.51
2017-07-12T00:38:16.223Z,802.52
2017-07-12T00:38:20.557Z,802.52
2017-07-12T00:38:24.900Z,802.51
2017-07-12T00:38:28.863Z,802.52
2017-07-12T00:38:32.706Z,802.51
2017-07-12T00:38:36.795Z,802.53
2017-07-12T00:38:40.876Z,802.49
2017-07-12T00:38:44.708Z,802.48
2017-07-12T00:38:49.030Z,802.46
2017-07-12T00:38:52.986Z,802.55
2017-07-12T00:38:57.069Z,802.51
2017-07-12T00:39:01.276Z,802.49
2017-07-12T00:39:05.132Z,802.52
2017-07-12T00:39:09.330Z,802.49
2017-07-12T00:39:13.423Z,802.5
2017-07-12T00:39:17.243Z,802.5
2017-07-12T00:39:21.337Z,802.45
2017-07-12T00:39:25.673Z,802.49
2017-07-12T00:39:29.865Z,802.48
2017-07-12T00:39:33.802Z,802.51
2017-07-12T00:39:38.137Z,802.45
2017-07-12T00:39:42.082Z,802.44
2017-07-12T00:39:46.397Z,802.5
2017-07-12T00:39:50.715Z,802.44
2017-07-12T00:39:55.041Z,802.47
2017-07-12T00:39:59.122Z,802.47
2017-07-12T00:40:03.288Z,802.45
2017-07-12T00:40:07.245Z,802.47
2017-07-12T00:40:11.071Z,802.45
2017-07-12T00:40:15.403Z,802.47
2017-07-12T00:40:19.861Z,802.42
2017-07-12T00:40:23.810Z,802.47
2017-07-12T00:40:28.138Z,802.47
2017-07-12T00:40:31.981Z,802.47
2017-07-12T00:40:35.943Z,802.45
2017-07-12T00:40:40.154Z,802.46
2017-07-12T00:40:44.482Z,802.46
2017-07-12T00:40:48.822Z,802.47
2017-07-12T00:40:52.780Z,802.44
2017-07-12T00:40:57.109Z,802.46
2017-07-12T00:41:01.064Z,802.46
2017-07-12T00:41:05.144Z,802.41
2017-07-12T00:41:09.221Z,802.46
2017-07-12T00:41:13.295Z,802.45
2017-07-12T00:41:17.249Z,802.44
2017-07-12T00:41:21.457Z,802.45
2017-07-12T00:41:25.404Z,802.44
2017-07-12T00:41:29.621Z,802.41
2017-07-12T00:41:33.454Z,802.46
2017-07-12T00:41:37.525Z,802.43
2017-07-12T00:41:41.755Z,802.44
2017-07-12T00:41:45.582Z,802.45
2017-07-12T00:41:49.916Z,802.45
2017-07-12T00:41:54.254Z,802.44
2017-07-12T00:41:58.594Z,802.43
2017-07-12T00:42:02.560Z,802.43
2017-07-12T00:42:06.379Z,802.42
2017-07-12T00:42:10.525Z,802.4
2017-07-12T00:42:14.603Z,802.4
2017-07-12T00:42:18.945Z,802.44
2017-07-12T00:42:23.160Z,802.45
2017-07-12T00:42:27.489Z,802.44
2017-07-12T00:42:31.311Z,802.42
2017-07-12T00:42:35.262Z,802.44
2017-07-12T00:42:39.609Z,802.43
2017-07-12T00:42:43.809Z,802.39
2017-07-12T00:42:48.142Z,802.41
2017-07-12T00:42:51.962Z,802.39
2017-07-12T00:42:56.306Z,802.39
2017-07-12T00:43:00.262Z,802.41
2017-07-12T00:43:04.108Z,802.42
2017-07-12T00:43:08.075Z,802.38
2017-07-12T00:43:12.318Z,802.42
2017-07-12T00:43:16.267Z,802.41
2017-07-12T00:43:20.360Z,802.39
2017-07-12T00:43:24.566Z,802.4
2017-07-12T00:43:28.521Z,802.39
2017-07-12T00:43:32.619Z,802.43
2017-07-12T00:43:37.089Z,802.38
2017-07-12T00:43:40.794Z,802.42
2017-07-12T00:43:44.484Z,802.42
2017-07-12T00:43:48.814Z,802.37
2017-07-12T00:43:52.765Z,802.4
2017-07-12T00:43:56.838Z,802.43
2017-07-12T00:44:00.799Z,802.42
2017-07-12T00:44:04.632Z,802.37
2017-07-12T00:44:08.722Z,802.36
2017-07-12T00:44:12.675Z,802.39
2017-07-12T00:44:16.883Z,802.44
2017-07-12T00:44:21.246Z,802.41
2017-07-12T00:44:25.593Z,802.4
2017-07-12T00:44:29.661Z,802.42
2017-07-12T00:44:33.751Z,802.36
2017-07-12T00:44:38.090Z,802.39
2017-07-12T00:44:42.312Z,802.41
2017-07-12T00:44:46.661Z,802.39
2017-07-12T00:44:50.849Z,802.36
2017-07-12T00:44:54.680Z,802.35
2017-07-12T00:44:58.757Z,802.34
2017-07-12T00:45:02.717Z,802.34
2017-07-12T00:45:06.533Z,802.36
2017-07-12T00:45:10.607Z,802.36
2017-07-12T00:45:14.689Z,802.39
2017-07-12T00:45:18.896Z,802.4
2017-07-12T00:45:23.117Z,802.36
2017-07-12T00:45:27.463Z,802.39
2017-07-12T00:45:31.416Z,802.35
2017-07-12T00:45:35.496Z,802.39
2017-07-12T00:45:39.578Z,802.4
2017-07-12T00:45:43.817Z,802.38
2017-07-12T00:45:48.296Z,802.37
2017-07-12T00:45:52.631Z,802.36
2017-07-12T00:45:56.704Z,802.39
2017-07-12T00:46:00.915Z,802.36
2017-07-12T00:46:04.986Z,802.38
2017-07-12T00:46:09.076Z,802.4
2017-07-12T00:46:12.776Z,802.32
2017-07-12T00:46:16.846Z,802.38
2017-07-12T00:46:21.171Z,802.35
2017-07-12T00:46:25.244Z,802.38
2017-07-12T00:46:29.326Z,802.38
2017-07-12T00:46:33.406Z,802.4
2017-07-12T00:46:37.749Z,802.33
2017-07-12T00:46:41.826Z,802.36
2017-07-12T00:46:45.643Z,802.35
2017-07-12T00:46:49.607Z,802.37
2017-07-12T00:46:53.819Z,802.39
2017-07-12T00:46:58.224Z,802.35
2017-07-12T00:47:02.436Z,802.35
2017-07-12T00:47:06.391Z,802.37
2017-07-12T00:47:10.345Z,802.38
2017-07-12T00:47:14.040Z,802.35
2017-07-12T00:47:18.555Z,802.35
2017-07-12T00:47:22.531Z,802.36
2017-07-12T00:47:26.733Z,802.34
2017-07-12T00:47:30.812Z,802.35
2017-07-12T00:47:35.146Z,802.36
2017-07-12T00:47:39.361Z,802.35
2017-07-12T00:47:43.695Z,802.36
2017-07-12T00:47:47.772Z,802.38
2017-07-12T00:47:51.841Z,802.37
2017-07-12T00:47:56.166Z,802.37
2017-07-12T00:48:00.519Z,802.36
2017-07-12T00:48:04.578Z,802.36
2017-07-12T00:48:08.787Z,802.37
2017-07-12T00:48:13.129Z,802.36
2017-07-12T00:48:17.327Z,802.35
2017-07-12T00:48:21.284Z,802.33
2017-07-12T00:48:25.629Z,802.37
2017-07-12T00:48:29.988Z,802.36
2017-07-12T00:48:33.683Z,802.33
2017-07-12T00:48:37.874Z,802.35
2017-07-12T00:48:41.816Z,802.35
2017-07-12T00:48:46.140Z,802.35
2017-07-12T00:48:50.087Z,802.34
2017-07-12T00:48:54.298Z,802.35
2017-07-12T00:48:58.377Z,802.34
2017-07-12T00:49:02.471Z,802.33
2017-07-12T00:49:06.867Z,802.32
2017-07-12T00:49:10.830Z,802.37
2017-07-12T00:49:14.915Z,802.33
2017-07-12T00:49:19.007Z,802.32
2017-07-12T00:49:23.079Z,802.31
2017-07-12T00:49:26.776Z,802.31
2017-07-12T00:49:30.859Z,802.35
2017-07-12T00:49:34.819Z,802.31
2017-07-12T00:49:38.900Z,802.33
2017-07-12T00:49:43.230Z,802.32
2017-07-12T00:49:47.437Z,802.34
2017-07-12T00:49:51.647Z,802.33
2017-07-12T00:49:56.086Z,802.34
2017-07-12T00:50:00.533Z,802.35
2017-07-12T00:50:04.984Z,802.33
2017-07-12T00:50:08.816Z,802.33
2017-07-12T00:50:12.900Z,802.32
2017-07-12T00:50:17.228Z,802.32
2017-07-12T00:50:21.435Z,802.32
2017-07-12T00:50:25.641Z,802.32
2017-07-12T00:50:29.721Z,802.33
2017-07-12T00:50:33.811Z,802.34
2017-07-12T00:50:37.751Z,802.34
2017-07-12T00:50:41.943Z,802.32
2017-07-12T00:50:46.148Z,802.33
2017-07-12T00:50:50.487Z,802.31
2017-07-12T00:50:54.701Z,802.37
2017-07-12T00:50:59.028Z,802.32
2017-07-12T00:51:03.102Z,802.32
2017-07-12T00:51:07.050Z,802.33
2017-07-12T00:51:10.994Z,802.33
2017-07-12T00:51:15.209Z,802.35
2017-07-12T00:51:19.666Z,802.31